sensor_id;sensor_type;location;lat;lon;timestamp;pressure;altitude;pressure_sealevel;temperature;humidity
50652;BME280;61429;52.086;5.240;2022-07-06T00:00:28;102483.99999999999;;;15.78;63.9
50652;BME280;61429;52.086;5.240;2022-07-06T00:02:15;102489.00000000001;;;15.77;63.89
50652;BME280;61429;52.086;5.240;2022-07-06T00:04:02;102484.99999999999;;;15.79;63.88
50652;BME280;61429;52.086;5.240;2022-07-06T00:05:49;102486.99999999999;;;15.77;63.96
50652;BME280;61429;52.086;5.240;2022-07-06T00:07:35;102490.00000000001;;;15.7;64.2
50652;BME280;61429;52.086;5.240;2022-07-06T00:11:07;102486.99999999999;;;15.74;64.06
50652;BME280;61429;52.086;5.240;2022-07-06T00:12:53;102482.0;;;15.62;64.42
50652;BME280;61429;52.086;5.240;2022-07-06T00:14:40;102475.0;;;15.65;64.33
50652;BME280;61429;52.086;5.240;2022-07-06T00:16:27;102479.0;;;15.64;64.52
50652;BME280;61429;52.086;5.240;2022-07-06T00:18:14;102475.0;;;15.6;64.72
50652;BME280;61429;52.086;5.240;2022-07-06T00:21:46;102477.0;;;15.53;64.88
50652;BME280;61429;52.086;5.240;2022-07-06T00:23:33;102476.0;;;15.5;64.94
50652;BME280;61429;52.086;5.240;2022-07-06T00:25:20;102479.0;;;15.47;65.08
50652;BME280;61429;52.086;5.240;2022-07-06T00:27:06;102476.0;;;15.53;64.73
50652;BME280;61429;52.086;5.240;2022-07-06T00:28:53;102475.0;;;15.52;64.84
50652;BME280;61429;52.086;5.240;2022-07-06T00:30:40;102478.0;;;15.47;64.89
50652;BME280;61429;52.086;5.240;2022-07-06T00:34:15;102474.0;;;15.5;64.88
50652;BME280;61429;52.086;5.240;2022-07-06T00:36:02;102477.0;;;15.42;65.2
50652;BME280;61429;52.086;5.240;2022-07-06T00:37:48;102470.0;;;15.46;65.02
50652;BME280;61429;52.086;5.240;2022-07-06T00:39:34;102471.0;;;15.36;65.56
50652;BME280;61429;52.086;5.240;2022-07-06T00:41:20;102472.0;;;15.23;65.91
50652;BME280;61429;52.086;5.240;2022-07-06T00:43:07;102475.0;;;15.27;65.73
50652;BME280;61429;52.086;5.240;2022-07-06T00:46:40;102478.0;;;15.19;66.02
50652;BME280;61429;52.086;5.240;2022-07-06T00:48:26;102478.0;;;15.2;65.97
50652;BME280;61429;52.086;5.240;2022-07-06T00:50:18;102481.0;;;15.11;66.28
50652;BME280;61429;52.086;5.240;2022-07-06T00:52:06;102478.0;;;15.17;66.08
50652;BME280;61429;52.086;5.240;2022-07-06T00:55:44;102475.0;;;15.22;65.8
50652;BME280;61429;52.086;5.240;2022-07-06T00:59:17;102478.0;;;15.17;65.97
50652;BME280;61429;52.086;5.240;2022-07-06T01:01:04;102479.0;;;15.16;65.98
50652;BME280;61429;52.086;5.240;2022-07-06T01:02:52;102480.0;;;15.13;66.08
50652;BME280;61429;52.086;5.240;2022-07-06T01:04:39;102475.0;;;15.1;66.19
50652;BME280;61429;52.086;5.240;2022-07-06T01:06:25;102477.0;;;15.01;66.59
50652;BME280;61429;52.086;5.240;2022-07-06T01:09:59;102476.0;;;15.02;66.52
50652;BME280;61429;52.086;5.240;2022-07-06T01:11:48;102480.0;;;15.11;66.2
50652;BME280;61429;52.086;5.240;2022-07-06T01:13:34;102483.0;;;15.06;66.3
50652;BME280;61429;52.086;5.240;2022-07-06T01:15:22;102490.00000000001;;;14.98;66.55
50652;BME280;61429;52.086;5.240;2022-07-06T01:17:12;102490.00000000001;;;15.05;66.39
50652;BME280;61429;52.086;5.240;2022-07-06T01:18:59;102492.0;;;15.0;66.55
50652;BME280;61429;52.086;5.240;2022-07-06T01:22:32;102491.00000000001;;;15.09;66.25
50652;BME280;61429;52.086;5.240;2022-07-06T01:24:18;102484.99999999999;;;14.94;66.72
50652;BME280;61429;52.086;5.240;2022-07-06T01:26:04;102483.0;;;15.04;66.5
50652;BME280;61429;52.086;5.240;2022-07-06T01:27:50;102484.99999999999;;;14.95;66.72
50652;BME280;61429;52.086;5.240;2022-07-06T01:29:36;102483.0;;;14.82;67.24
50652;BME280;61429;52.086;5.240;2022-07-06T01:31:24;102486.99999999999;;;14.86;67.11
50652;BME280;61429;52.086;5.240;2022-07-06T01:34:59;102482.0;;;14.83;67.19
50652;BME280;61429;52.086;5.240;2022-07-06T01:36:45;102475.0;;;14.93;66.86
50652;BME280;61429;52.086;5.240;2022-07-06T01:38:43;102473.0;;;14.84;67.22
50652;BME280;61429;52.086;5.240;2022-07-06T01:40:29;102471.0;;;14.82;67.24
50652;BME280;61429;52.086;5.240;2022-07-06T01:42:17;102471.0;;;14.92;67.06
50652;BME280;61429;52.086;5.240;2022-07-06T01:44:05;102470.0;;;14.92;67.13
50652;BME280;61429;52.086;5.240;2022-07-06T01:45:52;102470.0;;;14.93;67.02
50652;BME280;61429;52.086;5.240;2022-07-06T01:49:24;102470.0;;;15.0;67.05
50652;BME280;61429;52.086;5.240;2022-07-06T01:51:11;102471.0;;;14.97;66.97
50652;BME280;61429;52.086;5.240;2022-07-06T01:52:59;102470.0;;;14.98;66.73
50652;BME280;61429;52.086;5.240;2022-07-06T01:54:46;102469.0;;;15.08;66.56
50652;BME280;61429;52.086;5.240;2022-07-06T01:56:32;102474.0;;;15.08;66.67
50652;BME280;61429;52.086;5.240;2022-07-06T02:00:06;102473.0;;;15.05;66.73
50652;BME280;61429;52.086;5.240;2022-07-06T02:01:55;102472.0;;;14.93;67.06
50652;BME280;61429;52.086;5.240;2022-07-06T02:03:41;102471.0;;;15.04;66.77
50652;BME280;61429;52.086;5.240;2022-07-06T02:05:28;102470.0;;;14.98;66.99
50652;BME280;61429;52.086;5.240;2022-07-06T02:07:14;102467.0;;;14.94;67.12
50652;BME280;61429;52.086;5.240;2022-07-06T02:09:01;102470.0;;;14.94;66.99
50652;BME280;61429;52.086;5.240;2022-07-06T02:12:34;102467.0;;;15.04;66.74
50652;BME280;61429;52.086;5.240;2022-07-06T02:14:20;102470.0;;;15.08;66.58
50652;BME280;61429;52.086;5.240;2022-07-06T02:16:06;102469.0;;;15.06;66.99
50652;BME280;61429;52.086;5.240;2022-07-06T02:17:53;102468.0;;;15.19;66.53
50652;BME280;61429;52.086;5.240;2022-07-06T02:19:40;102468.0;;;15.22;66.19
50652;BME280;61429;52.086;5.240;2022-07-06T02:23:12;102467.0;;;15.24;66.27
50652;BME280;61429;52.086;5.240;2022-07-06T02:24:59;102465.00000000001;;;15.22;66.67
50652;BME280;61429;52.086;5.240;2022-07-06T02:26:47;102467.0;;;15.21;66.78
50652;BME280;61429;52.086;5.240;2022-07-06T02:28:33;102465.00000000001;;;15.29;66.55
50652;BME280;61429;52.086;5.240;2022-07-06T02:30:21;102465.00000000001;;;15.36;66.3
50652;BME280;61429;52.086;5.240;2022-07-06T02:32:07;102466.00000000001;;;15.31;66.35
50652;BME280;61429;52.086;5.240;2022-07-06T02:35:42;102464.00000000001;;;15.38;66.14
50652;BME280;61429;52.086;5.240;2022-07-06T02:37:29;102464.00000000001;;;15.31;66.52
50652;BME280;61429;52.086;5.240;2022-07-06T02:39:15;102469.0;;;15.36;66.3
50652;BME280;61429;52.086;5.240;2022-07-06T02:41:02;102468.0;;;15.42;66.02
50652;BME280;61429;52.086;5.240;2022-07-06T02:42:49;102466.00000000001;;;15.42;66.02
50652;BME280;61429;52.086;5.240;2022-07-06T02:44:35;102468.0;;;15.46;65.83
50652;BME280;61429;52.086;5.240;2022-07-06T02:48:07;102471.0;;;15.39;66.05
50652;BME280;61429;52.086;5.240;2022-07-06T02:49:54;102471.0;;;15.47;65.87
50652;BME280;61429;52.086;5.240;2022-07-06T02:51:41;102467.0;;;15.45;65.66
50652;BME280;61429;52.086;5.240;2022-07-06T02:53:27;102471.0;;;15.43;65.81
50652;BME280;61429;52.086;5.240;2022-07-06T02:55:13;102472.0;;;15.4;65.91
50652;BME280;61429;52.086;5.240;2022-07-06T02:58:45;102470.0;;;15.5;65.73
50652;BME280;61429;52.086;5.240;2022-07-06T03:00:32;102473.0;;;15.54;65.55
50652;BME280;61429;52.086;5.240;2022-07-06T03:02:19;102473.0;;;15.44;65.86
50652;BME280;61429;52.086;5.240;2022-07-06T03:04:06;102475.0;;;15.45;66.05
50652;BME280;61429;52.086;5.240;2022-07-06T03:05:52;102469.0;;;15.46;66.06
50652;BME280;61429;52.086;5.240;2022-07-06T03:07:40;102472.0;;;15.45;65.97
50652;BME280;61429;52.086;5.240;2022-07-06T03:11:13;102479.0;;;15.44;66.11
50652;BME280;61429;52.086;5.240;2022-07-06T03:12:59;102479.0;;;15.37;66.16
50652;BME280;61429;52.086;5.240;2022-07-06T03:14:45;102478.0;;;15.36;66.27
50652;BME280;61429;52.086;5.240;2022-07-06T03:16:31;102474.0;;;15.33;66.47
50652;BME280;61429;52.086;5.240;2022-07-06T03:18:19;102478.0;;;15.36;66.56
50652;BME280;61429;52.086;5.240;2022-07-06T03:20:05;102473.0;;;15.43;66.13
50652;BME280;61429;52.086;5.240;2022-07-06T03:23:39;102480.0;;;15.4;66.08
50652;BME280;61429;52.086;5.240;2022-07-06T03:25:25;102488.00000000001;;;15.43;66.05
50652;BME280;61429;52.086;5.240;2022-07-06T03:27:11;102483.99999999999;;;15.42;66.09
50652;BME280;61429;52.086;5.240;2022-07-06T03:28:57;102492.0;;;15.41;66.03
50652;BME280;61429;52.086;5.240;2022-07-06T03:30:44;102492.0;;;15.5;65.94
50652;BME280;61429;52.086;5.240;2022-07-06T03:34:18;102490.00000000001;;;15.39;66.3
50652;BME280;61429;52.086;5.240;2022-07-06T03:36:05;102490.00000000001;;;15.42;66.22
50652;BME280;61429;52.086;5.240;2022-07-06T03:37:52;102489.00000000001;;;15.38;66.1
50652;BME280;61429;52.086;5.240;2022-07-06T03:39:39;102483.0;;;15.31;66.27
50652;BME280;61429;52.086;5.240;2022-07-06T03:41:25;102482.0;;;15.28;66.48
50652;BME280;61429;52.086;5.240;2022-07-06T03:43:11;102481.0;;;15.3;66.44
50652;BME280;61429;52.086;5.240;2022-07-06T03:46:44;102480.0;;;15.21;66.72
50652;BME280;61429;52.086;5.240;2022-07-06T03:48:32;102483.0;;;15.24;66.62
50652;BME280;61429;52.086;5.240;2022-07-06T03:50:18;102484.99999999999;;;15.16;66.94
50652;BME280;61429;52.086;5.240;2022-07-06T03:52:05;102484.99999999999;;;15.21;66.99
50652;BME280;61429;52.086;5.240;2022-07-06T03:53:51;102484.99999999999;;;15.2;66.91
50652;BME280;61429;52.086;5.240;2022-07-06T03:55:37;102482.0;;;15.13;67.28
50652;BME280;61429;52.086;5.240;2022-07-06T03:59:13;102481.0;;;15.11;67.34
50652;BME280;61429;52.086;5.240;2022-07-06T04:01:00;102480.0;;;15.08;67.67
50652;BME280;61429;52.086;5.240;2022-07-06T04:02:46;102476.0;;;15.19;67.33
50652;BME280;61429;52.086;5.240;2022-07-06T04:04:33;102480.0;;;15.18;67.41
50652;BME280;61429;52.086;5.240;2022-07-06T04:06:20;102472.0;;;15.3;66.98
50652;BME280;61429;52.086;5.240;2022-07-06T04:08:07;102467.0;;;15.44;66.83
50652;BME280;61429;52.086;5.240;2022-07-06T04:11:41;102477.0;;;15.4;66.91
50652;BME280;61429;52.086;5.240;2022-07-06T04:13:27;102475.0;;;15.47;66.61
50652;BME280;61429;52.086;5.240;2022-07-06T04:15:13;102478.0;;;15.51;66.64
50652;BME280;61429;52.086;5.240;2022-07-06T04:17:51;102478.0;;;15.55;66.48
50652;BME280;61429;52.086;5.240;2022-07-06T04:19:38;102479.0;;;15.67;65.77
50652;BME280;61429;52.086;5.240;2022-07-06T04:21:24;102482.0;;;15.68;65.69
50652;BME280;61429;52.086;5.240;2022-07-06T04:23:10;102479.0;;;15.65;65.58
50652;BME280;61429;52.086;5.240;2022-07-06T04:24:57;102474.0;;;15.56;65.89
50652;BME280;61429;52.086;5.240;2022-07-06T04:28:29;102475.0;;;15.47;66.05
50652;BME280;61429;52.086;5.240;2022-07-06T04:30:16;102482.0;;;15.44;66.19
50652;BME280;61429;52.086;5.240;2022-07-06T04:32:02;102481.0;;;15.43;66.27
50652;BME280;61429;52.086;5.240;2022-07-06T04:33:49;102476.0;;;15.41;66.61
50652;BME280;61429;52.086;5.240;2022-07-06T04:35:35;102471.0;;;15.4;66.52
50652;BME280;61429;52.086;5.240;2022-07-06T04:39:08;102475.0;;;15.43;66.58
50652;BME280;61429;52.086;5.240;2022-07-06T04:40:56;102475.0;;;15.45;66.63
50652;BME280;61429;52.086;5.240;2022-07-06T04:42:42;102479.0;;;15.41;66.85
50652;BME280;61429;52.086;5.240;2022-07-06T04:44:29;102478.0;;;15.48;66.45
50652;BME280;61429;52.086;5.240;2022-07-06T04:46:16;102475.0;;;15.58;66.11
50652;BME280;61429;52.086;5.240;2022-07-06T04:48:03;102469.0;;;15.52;66.08
50652;BME280;61429;52.086;5.240;2022-07-06T04:51:37;102467.0;;;15.58;66.11
50652;BME280;61429;52.086;5.240;2022-07-06T04:53:23;102472.0;;;15.58;66.11
50652;BME280;61429;52.086;5.240;2022-07-06T04:55:10;102474.0;;;15.68;65.85
50652;BME280;61429;52.086;5.240;2022-07-06T04:56:57;102479.0;;;15.66;65.88
50652;BME280;61429;52.086;5.240;2022-07-06T04:58:43;102475.0;;;15.58;66.22
50652;BME280;61429;52.086;5.240;2022-07-06T05:00:30;102476.0;;;15.69;65.98
50652;BME280;61429;52.086;5.240;2022-07-06T05:04:03;102481.0;;;15.72;65.92
50652;BME280;61429;52.086;5.240;2022-07-06T05:05:50;102480.0;;;15.73;65.87
50652;BME280;61429;52.086;5.240;2022-07-06T05:07:39;102479.0;;;15.76;65.83
50652;BME280;61429;52.086;5.240;2022-07-06T05:09:26;102482.0;;;15.83;65.8
50652;BME280;61429;52.086;5.240;2022-07-06T05:11:12;102483.99999999999;;;15.9;65.63
50652;BME280;61429;52.086;5.240;2022-07-06T05:14:44;102488.00000000001;;;15.9;65.66
50652;BME280;61429;52.086;5.240;2022-07-06T05:16:30;102483.0;;;16.04;65.33
50652;BME280;61429;52.086;5.240;2022-07-06T05:18:17;102482.0;;;16.11;65.08
50652;BME280;61429;52.086;5.240;2022-07-06T05:20:05;102486.99999999999;;;16.12;65.31
50652;BME280;61429;52.086;5.240;2022-07-06T05:21:52;102482.0;;;16.16;65.23
50652;BME280;61429;52.086;5.240;2022-07-06T05:23:38;102484.99999999999;;;16.18;65.41
50652;BME280;61429;52.086;5.240;2022-07-06T05:27:11;102486.99999999999;;;16.31;65.09
50652;BME280;61429;52.086;5.240;2022-07-06T05:28:57;102486.99999999999;;;16.45;64.62
50652;BME280;61429;52.086;5.240;2022-07-06T05:30:44;102493.0;;;16.5;64.53
50652;BME280;61429;52.086;5.240;2022-07-06T05:32:30;102490.00000000001;;;16.56;64.36
50652;BME280;61429;52.086;5.240;2022-07-06T05:34:16;102491.00000000001;;;16.71;63.95
50652;BME280;61429;52.086;5.240;2022-07-06T05:36:04;102490.00000000001;;;16.9;63.34
50652;BME280;61429;52.086;5.240;2022-07-06T05:39:38;102490.00000000001;;;16.93;63.17
50652;BME280;61429;52.086;5.240;2022-07-06T05:41:25;102490.00000000001;;;16.98;63.12
50652;BME280;61429;52.086;5.240;2022-07-06T05:43:11;102489.00000000001;;;17.16;62.43
50652;BME280;61429;52.086;5.240;2022-07-06T05:44:57;102490.00000000001;;;17.11;62.51
50652;BME280;61429;52.086;5.240;2022-07-06T05:46:43;102492.0;;;17.2;62.34
50652;BME280;61429;52.086;5.240;2022-07-06T05:51:34;102495.0;;;17.31;62.1
50652;BME280;61429;52.086;5.240;2022-07-06T05:53:20;102495.0;;;17.31;61.75
50652;BME280;61429;52.086;5.240;2022-07-06T05:55:08;102494.0;;;17.2;61.9
50652;BME280;61429;52.086;5.240;2022-07-06T05:56:54;102492.0;;;17.41;61.58
50652;BME280;61429;52.086;5.240;2022-07-06T06:00:28;102498.0;;;17.47;61.44
50652;BME280;61429;52.086;5.240;2022-07-06T06:02:15;102495.0;;;17.34;61.28
50652;BME280;61429;52.086;5.240;2022-07-06T06:04:02;102499.0;;;17.43;60.63
50652;BME280;61429;52.086;5.240;2022-07-06T06:05:49;102497.0;;;17.5;60.51
50652;BME280;61429;52.086;5.240;2022-07-06T06:07:36;102499.0;;;17.5;60.55
50652;BME280;61429;52.086;5.240;2022-07-06T06:11:09;102496.0;;;17.22;60.89
50652;BME280;61429;52.086;5.240;2022-07-06T06:12:56;102496.0;;;17.09;60.94
50652;BME280;61429;52.086;5.240;2022-07-06T06:14:43;102498.0;;;16.84;61.89
50652;BME280;61429;52.086;5.240;2022-07-06T06:16:30;102499.0;;;17.0;61.26
50652;BME280;61429;52.086;5.240;2022-07-06T06:18:17;102495.0;;;17.23;60.46
50652;BME280;61429;52.086;5.240;2022-07-06T06:20:08;102501.0;;;17.13;61.03
50652;BME280;61429;52.086;5.240;2022-07-06T06:23:43;102502.0;;;17.21;60.95
50652;BME280;61429;52.086;5.240;2022-07-06T06:25:31;102503.0;;;17.22;60.95
50652;BME280;61429;52.086;5.240;2022-07-06T06:27:19;102502.0;;;16.88;61.59
50652;BME280;61429;52.086;5.240;2022-07-06T06:29:05;102504.0;;;17.0;61.41
50652;BME280;61429;52.086;5.240;2022-07-06T06:30:51;102503.0;;;17.2;60.83
50652;BME280;61429;52.086;5.240;2022-07-06T06:32:38;102509.99999999999;;;17.18;60.79
50652;BME280;61429;52.086;5.240;2022-07-06T06:36:11;102509.99999999999;;;16.87;61.43
50652;BME280;61429;52.086;5.240;2022-07-06T06:37:57;102517.0;;;16.63;62.13
50652;BME280;61429;52.086;5.240;2022-07-06T06:39:43;102509.99999999999;;;16.84;61.42
50652;BME280;61429;52.086;5.240;2022-07-06T06:41:30;102506.0;;;17.0;61.24
50652;BME280;61429;52.086;5.240;2022-07-06T06:43:16;102513.00000000001;;;17.0;62.02
50652;BME280;61429;52.086;5.240;2022-07-06T06:45:03;102507.0;;;16.88;61.79
50652;BME280;61429;52.086;5.240;2022-07-06T06:48:37;102509.99999999999;;;16.98;61.67
50652;BME280;61429;52.086;5.240;2022-07-06T06:50:23;102509.99999999999;;;17.2;61.38
50652;BME280;61429;52.086;5.240;2022-07-06T06:52:10;102508.0;;;17.43;60.37
50652;BME280;61429;52.086;5.240;2022-07-06T06:53:56;102515.00000000001;;;17.52;60.29
50652;BME280;61429;52.086;5.240;2022-07-06T06:55:43;102517.0;;;17.23;60.09
50652;BME280;61429;52.086;5.240;2022-07-06T06:59:16;102519.0;;;17.12;60.1
50652;BME280;61429;52.086;5.240;2022-07-06T07:01:04;102508.99999999999;;;17.21;60.04
50652;BME280;61429;52.086;5.240;2022-07-06T07:02:51;102509.99999999999;;;17.22;60.8
50652;BME280;61429;52.086;5.240;2022-07-06T07:04:38;102513.00000000001;;;17.59;59.85
50652;BME280;61429;52.086;5.240;2022-07-06T07:06:24;102515.00000000001;;;17.55;59.73
50652;BME280;61429;52.086;5.240;2022-07-06T07:08:10;102518.0;;;17.68;58.71
50652;BME280;61429;52.086;5.240;2022-07-06T07:11:43;102514.00000000001;;;17.38;59.1
50652;BME280;61429;52.086;5.240;2022-07-06T07:13:29;102511.99999999999;;;17.41;58.71
50652;BME280;61429;52.086;5.240;2022-07-06T07:15:16;102518.0;;;17.32;58.68
50652;BME280;61429;52.086;5.240;2022-07-06T07:17:03;102517.0;;;17.45;59.05
50652;BME280;61429;52.086;5.240;2022-07-06T07:18:50;102522.0;;;17.41;59.45
50652;BME280;61429;52.086;5.240;2022-07-06T07:20:36;102523.0;;;17.73;58.2
50652;BME280;61429;52.086;5.240;2022-07-06T07:24:11;102515.00000000001;;;17.84;57.26
50652;BME280;61429;52.086;5.240;2022-07-06T07:25:57;102517.0;;;18.09;56.33
50652;BME280;61429;52.086;5.240;2022-07-06T07:27:43;102515.00000000001;;;17.98;56.02
50652;BME280;61429;52.086;5.240;2022-07-06T07:29:29;102514.00000000001;;;18.02;56.87
50652;BME280;61429;52.086;5.240;2022-07-06T07:31:15;102517.0;;;17.7;55.87
50652;BME280;61429;52.086;5.240;2022-07-06T07:34:47;102518.0;;;17.7;56.63
50652;BME280;61429;52.086;5.240;2022-07-06T07:36:34;102514.00000000001;;;17.54;56.74
50652;BME280;61429;52.086;5.240;2022-07-06T07:38:20;102522.0;;;18.04;56.31
50652;BME280;61429;52.086;5.240;2022-07-06T07:40:07;102518.0;;;18.11;54.69
50652;BME280;61429;52.086;5.240;2022-07-06T07:41:53;102519.0;;;18.06;55.12
50652;BME280;61429;52.086;5.240;2022-07-06T07:43:39;102517.0;;;18.41;53.14
50652;BME280;61429;52.086;5.240;2022-07-06T07:47:12;102520.0;;;18.27;52.07
50652;BME280;61429;52.086;5.240;2022-07-06T07:48:58;102514.00000000001;;;18.39;52.13
50652;BME280;61429;52.086;5.240;2022-07-06T07:50:45;102516.00000000001;;;18.36;51.93
50652;BME280;61429;52.086;5.240;2022-07-06T07:52:31;102518.0;;;18.23;52.83
50652;BME280;61429;52.086;5.240;2022-07-06T07:54:18;102521.0;;;18.18;50.84
50652;BME280;61429;52.086;5.240;2022-07-06T07:57:52;102520.0;;;18.43;50.85
50652;BME280;61429;52.086;5.240;2022-07-06T07:59:38;102526.0;;;18.46;50.83
50652;BME280;61429;52.086;5.240;2022-07-06T08:01:25;102517.0;;;18.34;49.61
50652;BME280;61429;52.086;5.240;2022-07-06T08:03:11;102513.00000000001;;;18.45;47.72
50652;BME280;61429;52.086;5.240;2022-07-06T08:04:59;102514.00000000001;;;18.84;47.7
50652;BME280;61429;52.086;5.240;2022-07-06T08:06:45;102513.00000000001;;;18.84;49.64
50652;BME280;61429;52.086;5.240;2022-07-06T08:10:19;102516.00000000001;;;18.91;48.85
50652;BME280;61429;52.086;5.240;2022-07-06T08:12:06;102515.00000000001;;;18.75;48.88
50652;BME280;61429;52.086;5.240;2022-07-06T08:15:40;102515.00000000001;;;18.68;46.97
50652;BME280;61429;52.086;5.240;2022-07-06T08:17:27;102508.99999999999;;;18.86;46.76
50652;BME280;61429;52.086;5.240;2022-07-06T08:19:15;102504.0;;;19.13;46.41
50652;BME280;61429;52.086;5.240;2022-07-06T08:22:49;102508.99999999999;;;18.86;44.64
50652;BME280;61429;52.086;5.240;2022-07-06T08:24:36;102508.99999999999;;;18.93;45.55
50652;BME280;61429;52.086;5.240;2022-07-06T08:26:23;102503.0;;;18.84;44.24
50652;BME280;61429;52.086;5.240;2022-07-06T08:28:10;102503.0;;;19.12;43.34
50652;BME280;61429;52.086;5.240;2022-07-06T08:29:56;102504.0;;;19.06;43.36
50652;BME280;61429;52.086;5.240;2022-07-06T08:31:42;102508.99999999999;;;19.09;42.93
50652;BME280;61429;52.086;5.240;2022-07-06T08:35:16;102511.99999999999;;;19.16;42.72
50652;BME280;61429;52.086;5.240;2022-07-06T08:37:03;102492.0;;;19.34;43.31
50652;BME280;61429;52.086;5.240;2022-07-06T08:38:49;102505.0;;;19.2;43.21
50652;BME280;61429;52.086;5.240;2022-07-06T08:40:38;102499.0;;;19.53;43.28
50652;BME280;61429;52.086;5.240;2022-07-06T08:42:30;102496.0;;;19.63;44.13
50652;BME280;61429;52.086;5.240;2022-07-06T08:44:17;102495.0;;;19.78;44.24
50652;BME280;61429;52.086;5.240;2022-07-06T08:47:54;102491.00000000001;;;19.47;44.73
50652;BME280;61429;52.086;5.240;2022-07-06T08:49:44;102497.0;;;19.57;44.08
50652;BME280;61429;52.086;5.240;2022-07-06T08:51:31;102492.0;;;19.43;44.19
50652;BME280;61429;52.086;5.240;2022-07-06T08:53:17;102495.0;;;19.45;44.71
50652;BME280;61429;52.086;5.240;2022-07-06T08:55:05;102492.0;;;19.43;43.46
50652;BME280;61429;52.086;5.240;2022-07-06T08:56:52;102492.0;;;19.25;43.48
50652;BME280;61429;52.086;5.240;2022-07-06T09:00:30;102497.0;;;19.16;43.65
50652;BME280;61429;52.086;5.240;2022-07-06T09:02:18;102495.0;;;18.71;44.03
50652;BME280;61429;52.086;5.240;2022-07-06T09:04:12;102493.0;;;19.11;42.98
50652;BME280;61429;52.086;5.240;2022-07-06T09:06:02;102494.0;;;19.29;42.7
50652;BME280;61429;52.086;5.240;2022-07-06T09:07:50;102494.0;;;19.66;41.77
50652;BME280;61429;52.086;5.240;2022-07-06T09:09:37;102492.0;;;19.84;41.81
50652;BME280;61429;52.086;5.240;2022-07-06T09:13:12;102501.0;;;19.11;44.02
50652;BME280;61429;52.086;5.240;2022-07-06T09:14:58;102498.0;;;19.34;43.61
50652;BME280;61429;52.086;5.240;2022-07-06T09:16:45;102496.0;;;19.52;42.31
50652;BME280;61429;52.086;5.240;2022-07-06T09:18:38;102496.0;;;19.5;41.44
50652;BME280;61429;52.086;5.240;2022-07-06T09:20:25;102492.0;;;19.61;41.87
50652;BME280;61429;52.086;5.240;2022-07-06T09:22:25;102500.0;;;19.75;41.79
50652;BME280;61429;52.086;5.240;2022-07-06T09:24:12;102490.00000000001;;;19.87;41.55
50652;BME280;61429;52.086;5.240;2022-07-06T09:27:50;102499.0;;;19.77;41.85
50652;BME280;61429;52.086;5.240;2022-07-06T09:29:45;102491.00000000001;;;19.77;41.14
50652;BME280;61429;52.086;5.240;2022-07-06T09:31:32;102491.00000000001;;;19.96;40.42
50652;BME280;61429;52.086;5.240;2022-07-06T09:33:18;102495.0;;;20.04;41.72
50652;BME280;61429;52.086;5.240;2022-07-06T09:35:05;102498.0;;;19.84;42.62
50652;BME280;61429;52.086;5.240;2022-07-06T09:36:52;102494.0;;;20.06;41.77
50652;BME280;61429;52.086;5.240;2022-07-06T09:40:25;102492.0;;;20.5;40.89
50652;BME280;61429;52.086;5.240;2022-07-06T09:42:11;102503.0;;;20.27;40.69
50652;BME280;61429;52.086;5.240;2022-07-06T09:43:57;102500.0;;;20.18;41.07
50652;BME280;61429;52.086;5.240;2022-07-06T09:45:45;102499.0;;;20.03;41.37
50652;BME280;61429;52.086;5.240;2022-07-06T09:47:32;102505.0;;;20.09;41.47
50652;BME280;61429;52.086;5.240;2022-07-06T09:49:20;102508.99999999999;;;20.12;41.61
50652;BME280;61429;52.086;5.240;2022-07-06T09:52:55;102499.0;;;20.39;41.09
50652;BME280;61429;52.086;5.240;2022-07-06T09:54:41;102508.0;;;20.16;41.92
50652;BME280;61429;52.086;5.240;2022-07-06T09:56:36;102501.0;;;20.25;41.79
50652;BME280;61429;52.086;5.240;2022-07-06T09:58:23;102497.0;;;20.58;41.01
50652;BME280;61429;52.086;5.240;2022-07-06T10:00:10;102499.0;;;20.49;41.35
50652;BME280;61429;52.086;5.240;2022-07-06T10:01:59;102503.0;;;20.46;40.92
50652;BME280;61429;52.086;5.240;2022-07-06T10:03:46;102504.0;;;20.91;40.17
50652;BME280;61429;52.086;5.240;2022-07-06T10:07:23;102498.0;;;20.81;40.78
50652;BME280;61429;52.086;5.240;2022-07-06T10:09:13;102505.0;;;20.87;40.96
50652;BME280;61429;52.086;5.240;2022-07-06T10:11:01;102503.0;;;20.39;42.35
50652;BME280;61429;52.086;5.240;2022-07-06T10:12:50;102506.0;;;20.11;43.06
50652;BME280;61429;52.086;5.240;2022-07-06T10:14:37;102504.0;;;20.36;42.86
50652;BME280;61429;52.086;5.240;2022-07-06T10:16:25;102501.0;;;20.45;42.75
50652;BME280;61429;52.086;5.240;2022-07-06T10:20:01;102495.0;;;20.8;42.06
50652;BME280;61429;52.086;5.240;2022-07-06T10:21:48;102493.0;;;20.59;42.22
50652;BME280;61429;52.086;5.240;2022-07-06T10:23:36;102496.0;;;20.45;42.3
50652;BME280;61429;52.086;5.240;2022-07-06T10:25:23;102497.0;;;20.93;41.04
50652;BME280;61429;52.086;5.240;2022-07-06T10:27:11;102495.0;;;20.55;40.98
50652;BME280;61429;52.086;5.240;2022-07-06T10:28:59;102490.00000000001;;;21.06;39.42
50652;BME280;61429;52.086;5.240;2022-07-06T10:32:37;102484.99999999999;;;21.11;39.92
50652;BME280;61429;52.086;5.240;2022-07-06T10:34:25;102482.0;;;21.37;40.06
50652;BME280;61429;52.086;5.240;2022-07-06T10:36:13;102490.00000000001;;;21.56;39.86
50652;BME280;61429;52.086;5.240;2022-07-06T10:42:58;102483.0;;;21.62;39.37
50652;BME280;61429;52.086;5.240;2022-07-06T10:44:45;102482.0;;;21.71;39.21
50652;BME280;61429;52.086;5.240;2022-07-06T10:46:33;102484.99999999999;;;21.76;39.43
50652;BME280;61429;52.086;5.240;2022-07-06T10:48:22;102483.0;;;21.76;39.17
50652;BME280;61429;52.086;5.240;2022-07-06T10:50:10;102480.0;;;21.54;38.99
50652;BME280;61429;52.086;5.240;2022-07-06T10:51:57;102481.0;;;21.35;39.18